createdAt,value
2018-09-02T04:08:06.776Z,5.73
2018-09-02T04:18:09.299Z,7.23
2018-09-02T04:28:12.844Z,6.37
2018-09-02T04:38:20.160Z,6.70
2018-09-02T04:48:22.663Z,6.57
2018-09-02T04:58:40.126Z,5.20
2018-09-02T05:08:42.763Z,5.70
2018-09-02T05:18:45.355Z,5.80
2018-09-02T05:28:47.841Z,6.43
2018-09-02T05:39:04.041Z,4.03
2018-09-02T05:49:06.643Z,7.30
2018-09-02T05:59:09.184Z,5.00
2018-09-02T06:09:11.740Z,4.90
2018-09-02T06:19:17.822Z,6.90
2018-09-02T06:29:20.782Z,4.03
2018-09-02T06:39:24.327Z,3.63
2018-09-02T06:49:29.201Z,3.50
2018-09-02T06:59:31.931Z,3.80
2018-09-02T07:09:34.583Z,3.27
2018-09-02T07:19:38.344Z,3.60
2018-09-02T07:29:41.880Z,2.80
2018-09-02T07:39:44.724Z,3.80
2018-09-02T07:49:47.208Z,3.37
2018-09-02T07:59:59.231Z,3.00
2018-09-02T08:10:01.799Z,3.10
2018-09-02T08:20:04.726Z,3.20
2018-09-02T08:30:08.081Z,3.40
2018-09-02T08:40:12.769Z,3.53
2018-09-02T08:50:19.129Z,3.87
2018-09-02T09:00:27.831Z,4.17
2018-09-02T09:10:30.345Z,4.13
2018-09-02T09:20:32.945Z,4.67
2018-09-02T09:30:35.519Z,4.30
2018-09-02T09:40:38.067Z,3.20
2018-09-02T09:50:42.730Z,3.80
2018-09-02T10:00:48.339Z,3.17
2018-09-02T10:10:50.959Z,2.87
2018-09-02T10:20:54.236Z,2.90
2018-09-02T10:30:56.963Z,2.90
2018-09-02T10:41:05.281Z,1.90
2018-09-02T10:51:08.154Z,2.50
2018-09-02T11:01:12.968Z,2.70
2018-09-02T11:11:15.963Z,3.57
2018-09-02T11:21:24.816Z,2.40
2018-09-02T11:31:30.159Z,2.90
2018-09-02T11:41:36.341Z,2.93
2018-09-02T11:51:39.979Z,3.10
2018-09-02T12:01:46.188Z,2.73
2018-09-02T12:11:49.823Z,3.37
2018-09-02T12:21:54.359Z,3.30
2018-09-02T12:32:01.569Z,3.30
2018-09-02T12:42:12.176Z,3.80
2018-09-02T12:52:15.005Z,3.10
2018-09-02T13:02:17.891Z,3.10
2018-09-02T13:12:20.487Z,2.60
2018-09-02T13:22:23.589Z,3.50
2018-09-02T13:32:31.851Z,3.17
2018-09-02T13:42:34.495Z,3.37
2018-09-02T13:52:38.064Z,4.00
2018-09-02T14:02:42.659Z,3.53
2018-09-02T14:12:46.307Z,4.90
2018-09-02T14:22:49.999Z,4.50
2018-09-02T14:32:52.567Z,5.77
2018-09-02T14:42:55.360Z,6.27
2018-09-02T14:52:58.289Z,6.70
2018-09-02T15:03:01.957Z,6.30
2018-09-02T15:13:04.515Z,7.00
2018-09-02T15:23:07.025Z,9.07
2018-09-02T15:33:13.730Z,8.93
2018-09-02T15:43:17.400Z,6.93
2018-09-02T15:53:37.988Z,7.53
2018-09-02T16:03:40.717Z,7.80
2018-09-02T16:13:43.240Z,8.50
2018-09-02T16:23:46.968Z,8.00
2018-09-02T16:33:49.677Z,8.40
2018-09-02T16:43:52.220Z,9.00
2018-09-02T16:53:54.844Z,9.23
2018-09-02T17:04:00.552Z,8.70
2018-09-02T17:14:03.102Z,8.60
2018-09-02T17:24:13.893Z,9.40
2018-09-02T17:34:16.679Z,10.27
2018-09-02T17:44:20.335Z,9.30
2018-09-02T17:54:23.025Z,9.00
2018-09-02T18:04:26.630Z,9.40
2018-09-02T18:14:29.820Z,10.17
2018-09-02T18:24:33.393Z,13.10
2018-09-02T18:34:37.333Z,10.83
2018-09-02T18:44:39.889Z,10.50
2018-09-02T18:54:43.349Z,11.40
2018-09-02T19:04:54.809Z,11.70
2018-09-02T19:15:12.139Z,12.97
2018-09-02T19:25:15.029Z,12.53
2018-09-02T19:35:17.577Z,13.00
2018-09-02T19:45:20.138Z,13.50
2018-09-02T19:55:23.165Z,13.40
2018-09-02T20:05:26.056Z,13.70
2018-09-02T20:15:28.914Z,14.50
2018-09-02T20:25:31.663Z,13.40
2018-09-02T20:35:37.899Z,14.07
2018-09-02T20:45:41.932Z,13.80
2018-09-02T20:55:49.360Z,13.70
2018-09-02T21:05:52.082Z,14.20
2018-09-02T21:15:54.639Z,14.90
2018-09-02T21:25:57.242Z,14.70
2018-09-02T21:36:00.796Z,16.27
2018-09-02T21:46:03.339Z,15.73
2018-09-02T21:56:07.120Z,17.80
2018-09-02T22:06:09.623Z,15.90
2018-09-02T22:16:12.250Z,17.13
2018-09-02T22:26:27.906Z,15.20
2018-09-02T22:36:54.168Z,15.80
2018-09-02T22:46:57.789Z,16.23
2018-09-02T22:57:18.748Z,18.40
2018-09-02T23:07:21.337Z,16.73
2018-09-02T23:17:30.725Z,19.60
2018-09-02T23:27:39.384Z,22.70
2018-09-02T23:37:41.940Z,21.17
2018-09-02T23:47:44.476Z,27.47
2018-09-02T23:57:57.412Z,24.30
